Aviation Digital Data Service (ADDS)

Output produced by METARs form (0224 UTC 25 April 2014)
found at http://aviationweather.gov/adds/metars/
 
KRWI 242340Z 2500/2524 VRB05KT P6SM BKN250 
     FM251000 17010KT P6SM FEW015 BKN060 
     TEMPO 2512/2516 5SM -SHRA BKN012 OVC025 
     FM251600 19012G22KT P6SM SCT020 BKN035 
     PROB30 2520/2524 2SM TSRA BKN025CB